sensor_id;sensor_type;location;lat;lon;timestamp;pressure;altitude;pressure_sealevel;temperature;humidity
21879;BME280;27908;42.708;23.278;2023-11-21T00:00:15;49641.28;;;-136.69;92.78
21879;BME280;27908;42.708;23.278;2023-11-21T00:02:41;49623.56;;;-136.69;93.04
21879;BME280;27908;42.708;23.278;2023-11-21T00:05:11;49647.19;;;-136.69;92.47
21879;BME280;27908;42.708;23.278;2023-11-21T00:07:37;49682.63;;;-136.69;92.87
21879;BME280;27908;42.708;23.278;2023-11-21T00:10:04;49659.00;;;-136.69;92.06
21879;BME280;27908;42.708;23.278;2023-11-21T00:12:34;49629.47;;;-136.69;91.46
21879;BME280;27908;42.708;23.278;2023-11-21T00:14:59;49716.09;;;-136.69;91.18
21879;BME280;27908;42.708;23.278;2023-11-21T00:17:25;49637.34;;;-136.69;91.09
21879;BME280;27908;42.708;23.278;2023-11-21T00:19:50;49625.53;;;-136.69;91.06
21879;BME280;27908;42.708;23.278;2023-11-21T00:22:19;49659.00;;;-136.69;90.29
21879;BME280;27908;42.708;23.278;2023-11-21T00:24:45;49664.91;;;-136.69;89.86
21879;BME280;27908;42.708;23.278;2023-11-21T00:27:11;49662.94;;;-136.69;89.68
21879;BME280;27908;42.708;23.278;2023-11-21T00:29:36;49641.28;;;-136.69;89.22
21879;BME280;27908;42.708;23.278;2023-11-21T00:32:04;49647.19;;;-136.69;89.63
21879;BME280;27908;42.708;23.278;2023-11-21T00:34:30;49662.94;;;-136.69;89.41
21879;BME280;27908;42.708;23.278;2023-11-21T00:36:56;49645.22;;;-136.69;89.30
21879;BME280;27908;42.708;23.278;2023-11-21T00:39:21;49657.03;;;-136.69;89.58
21879;BME280;27908;42.708;23.278;2023-11-21T00:41:47;49629.47;;;-136.69;89.48
21879;BME280;27908;42.708;23.278;2023-11-21T00:44:13;49639.31;;;-136.69;89.55
21879;BME280;27908;42.708;23.278;2023-11-21T00:46:39;49647.19;;;-136.69;90.24
21879;BME280;27908;42.708;23.278;2023-11-21T00:49:04;49678.69;;;-136.69;89.34
21879;BME280;27908;42.708;23.278;2023-11-21T00:51:30;49668.84;;;-136.69;90.06
21879;BME280;27908;42.708;23.278;2023-11-21T00:53:55;49684.59;;;-136.69;89.63
21879;BME280;27908;42.708;23.278;2023-11-21T00:56:22;49657.03;;;-136.69;89.66
21879;BME280;27908;42.708;23.278;2023-11-21T00:58:47;49649.16;;;-136.69;89.27
21879;BME280;27908;42.708;23.278;2023-11-21T01:01:16;49668.84;;;-136.69;89.39
21879;BME280;27908;42.708;23.278;2023-11-21T01:03:42;49647.19;;;-136.69;89.45
21879;BME280;27908;42.708;23.278;2023-11-21T01:06:07;49659.00;;;-136.69;88.84
21879;BME280;27908;42.708;23.278;2023-11-21T01:08:34;49659.00;;;-136.69;88.88
21879;BME280;27908;42.708;23.278;2023-11-21T01:11:01;49643.25;;;-136.69;88.19
21879;BME280;27908;42.708;23.278;2023-11-21T01:13:26;49647.19;;;-136.69;88.42
21879;BME280;27908;42.708;23.278;2023-11-21T01:15:55;49633.41;;;-136.69;88.88
21879;BME280;27908;42.708;23.278;2023-11-21T01:18:21;49625.53;;;-136.69;89.65
21879;BME280;27908;42.708;23.278;2023-11-21T01:20:46;49617.66;;;-136.69;89.90
21879;BME280;27908;42.708;23.278;2023-11-21T01:23:13;49655.06;;;-136.69;88.87
21879;BME280;27908;42.708;23.278;2023-11-21T01:25:39;49619.63;;;-136.69;89.10
21879;BME280;27908;42.708;23.278;2023-11-21T01:28:04;49657.03;;;-136.69;89.22
21879;BME280;27908;42.708;23.278;2023-11-21T01:30:30;49647.19;;;-136.69;89.95
21879;BME280;27908;42.708;23.278;2023-11-21T01:32:56;49647.19;;;-136.69;88.79
21879;BME280;27908;42.708;23.278;2023-11-21T01:35:22;49631.44;;;-136.69;89.18
21879;BME280;27908;42.708;23.278;2023-11-21T01:37:47;49659.00;;;-136.69;89.00
21879;BME280;27908;42.708;23.278;2023-11-21T01:40:13;49666.88;;;-136.69;89.68
21879;BME280;27908;42.708;23.278;2023-11-21T01:42:39;49639.31;;;-136.69;89.63
21879;BME280;27908;42.708;23.278;2023-11-21T01:45:06;49627.50;;;-136.69;90.02
21879;BME280;27908;42.708;23.278;2023-11-21T01:47:33;49647.19;;;-136.69;89.99
21879;BME280;27908;42.708;23.278;2023-11-21T01:49:59;49633.41;;;-136.69;90.21
21879;BME280;27908;42.708;23.278;2023-11-21T01:52:25;49657.03;;;-136.69;89.61
21879;BME280;27908;42.708;23.278;2023-11-21T01:54:51;49633.41;;;-136.69;90.15
21879;BME280;27908;42.708;23.278;2023-11-21T01:57:19;49645.22;;;-136.69;90.06
21879;BME280;27908;42.708;23.278;2023-11-21T01:59:47;49641.28;;;-136.69;89.80
21879;BME280;27908;42.708;23.278;2023-11-21T02:02:14;49651.13;;;-136.69;89.73
21879;BME280;27908;42.708;23.278;2023-11-21T02:04:39;49641.28;;;-136.69;90.27
21879;BME280;27908;42.708;23.278;2023-11-21T02:07:05;49625.53;;;-136.69;90.60
21879;BME280;27908;42.708;23.278;2023-11-21T02:09:31;49647.19;;;-136.69;90.78
21879;BME280;27908;42.708;23.278;2023-11-21T02:11:57;49641.28;;;-136.69;90.87
21879;BME280;27908;42.708;23.278;2023-11-21T02:14:27;49641.28;;;-136.69;91.50
21879;BME280;27908;42.708;23.278;2023-11-21T02:16:53;49668.84;;;-136.69;90.73
21879;BME280;27908;42.708;23.278;2023-11-21T02:19:20;49659.00;;;-136.69;91.37
21879;BME280;27908;42.708;23.278;2023-11-21T02:21:49;49649.16;;;-136.69;91.01
21879;BME280;27908;42.708;23.278;2023-11-21T02:24:15;49619.63;;;-136.69;90.93
21879;BME280;27908;42.708;23.278;2023-11-21T02:26:43;49623.56;;;-136.69;90.96
21879;BME280;27908;42.708;23.278;2023-11-21T02:29:08;49627.50;;;-136.69;91.20
21879;BME280;27908;42.708;23.278;2023-11-21T02:31:37;49651.13;;;-136.69;91.74
21879;BME280;27908;42.708;23.278;2023-11-21T02:34:11;49623.56;;;-136.69;91.98
21879;BME280;27908;42.708;23.278;2023-11-21T02:36:38;49655.06;;;-136.69;91.44
21879;BME280;27908;42.708;23.278;2023-11-21T02:39:04;49682.63;;;-136.69;91.52
21879;BME280;27908;42.708;23.278;2023-11-21T02:41:29;49633.41;;;-136.69;91.17
21879;BME280;27908;42.708;23.278;2023-11-21T02:43:55;49625.53;;;-136.69;91.07
21879;BME280;27908;42.708;23.278;2023-11-21T02:46:20;49643.25;;;-136.69;91.69
21879;BME280;27908;42.708;23.278;2023-11-21T02:48:47;49619.63;;;-136.69;91.73
21879;BME280;27908;42.708;23.278;2023-11-21T02:51:12;49643.25;;;-136.69;91.13
21879;BME280;27908;42.708;23.278;2023-11-21T02:53:38;49643.25;;;-136.69;91.99
21879;BME280;27908;42.708;23.278;2023-11-21T02:56:04;49649.16;;;-136.69;91.67
21879;BME280;27908;42.708;23.278;2023-11-21T02:58:30;49629.47;;;-136.69;92.13
21879;BME280;27908;42.708;23.278;2023-11-21T03:00:55;49635.38;;;-136.69;92.76
21879;BME280;27908;42.708;23.278;2023-11-21T03:03:21;49645.22;;;-136.69;92.38
21879;BME280;27908;42.708;23.278;2023-11-21T03:05:49;49653.09;;;-136.69;92.93
21879;BME280;27908;42.708;23.278;2023-11-21T03:08:14;49629.47;;;-136.69;93.00
21879;BME280;27908;42.708;23.278;2023-11-21T03:10:40;49639.31;;;-136.69;93.02
21879;BME280;27908;42.708;23.278;2023-11-21T03:13:05;49657.03;;;-136.69;92.87
21879;BME280;27908;42.708;23.278;2023-11-21T03:15:30;49670.81;;;-136.69;93.19
21879;BME280;27908;42.708;23.278;2023-11-21T03:17:58;49649.16;;;-136.69;92.81
21879;BME280;27908;42.708;23.278;2023-11-21T03:20:23;49633.41;;;-136.69;92.63
21879;BME280;27908;42.708;23.278;2023-11-21T03:22:48;49647.19;;;-136.69;92.83
21879;BME280;27908;42.708;23.278;2023-11-21T03:25:15;49655.06;;;-136.69;93.84
21879;BME280;27908;42.708;23.278;2023-11-21T03:27:42;49623.56;;;-136.69;94.03
21879;BME280;27908;42.708;23.278;2023-11-21T03:30:10;49649.16;;;-136.69;94.97
21879;BME280;27908;42.708;23.278;2023-11-21T03:32:36;49615.69;;;-136.69;94.75
21879;BME280;27908;42.708;23.278;2023-11-21T03:35:02;49637.34;;;-136.69;94.48
21879;BME280;27908;42.708;23.278;2023-11-21T03:37:27;49664.91;;;-136.69;94.38
21879;BME280;27908;42.708;23.278;2023-11-21T03:39:54;49623.56;;;-136.69;94.76
21879;BME280;27908;42.708;23.278;2023-11-21T03:42:20;49627.50;;;-136.69;94.31
21879;BME280;27908;42.708;23.278;2023-11-21T03:44:45;49625.53;;;-136.69;94.31
21879;BME280;27908;42.708;23.278;2023-11-21T03:47:11;49643.25;;;-136.69;94.08
21879;BME280;27908;42.708;23.278;2023-11-21T03:49:37;49655.06;;;-136.69;93.36
21879;BME280;27908;42.708;23.278;2023-11-21T03:52:03;49655.06;;;-136.69;93.42
21879;BME280;27908;42.708;23.278;2023-11-21T03:54:28;49639.31;;;-136.69;93.46
21879;BME280;27908;42.708;23.278;2023-11-21T03:56:53;49653.09;;;-136.69;93.07
21879;BME280;27908;42.708;23.278;2023-11-21T03:59:19;49655.06;;;-136.69;92.88
21879;BME280;27908;42.708;23.278;2023-11-21T04:01:44;49660.97;;;-136.69;93.30
21879;BME280;27908;42.708;23.278;2023-11-21T04:04:10;49672.78;;;-136.69;93.53
21879;BME280;27908;42.708;23.278;2023-11-21T04:06:35;49639.31;;;-136.69;93.54
21879;BME280;27908;42.708;23.278;2023-11-21T04:09:02;49668.84;;;-136.69;93.50
21879;BME280;27908;42.708;23.278;2023-11-21T04:11:29;49645.22;;;-136.69;93.13
21879;BME280;27908;42.708;23.278;2023-11-21T04:13:55;49668.84;;;-136.69;92.73
21879;BME280;27908;42.708;23.278;2023-11-21T04:16:20;49651.13;;;-136.69;93.34
21879;BME280;27908;42.708;23.278;2023-11-21T04:18:46;49635.38;;;-136.69;92.92
21879;BME280;27908;42.708;23.278;2023-11-21T04:21:11;49664.91;;;-136.69;92.68
21879;BME280;27908;42.708;23.278;2023-11-21T04:23:37;49637.34;;;-136.69;93.05
21879;BME280;27908;42.708;23.278;2023-11-21T04:26:02;49659.00;;;-136.69;93.00
21879;BME280;27908;42.708;23.278;2023-11-21T04:28:28;49694.44;;;-136.69;92.73
21879;BME280;27908;42.708;23.278;2023-11-21T04:30:53;49662.94;;;-136.69;92.88
21879;BME280;27908;42.708;23.278;2023-11-21T04:33:19;49631.44;;;-136.69;92.16
21879;BME280;27908;42.708;23.278;2023-11-21T04:35:44;49635.38;;;-136.69;92.81
21879;BME280;27908;42.708;23.278;2023-11-21T04:38:10;49635.38;;;-136.69;92.91
21879;BME280;27908;42.708;23.278;2023-11-21T04:40:36;49666.88;;;-136.69;93.15
21879;BME280;27908;42.708;23.278;2023-11-21T04:43:01;49627.50;;;-136.69;93.94
21879;BME280;27908;42.708;23.278;2023-11-21T04:45:27;49657.03;;;-136.69;94.57
21879;BME280;27908;42.708;23.278;2023-11-21T04:47:52;49723.97;;;-136.69;95.15
21879;BME280;27908;42.708;23.278;2023-11-21T04:50:18;49659.00;;;-136.69;95.47
21879;BME280;27908;42.708;23.278;2023-11-21T04:52:44;49664.91;;;-136.69;95.17
21879;BME280;27908;42.708;23.278;2023-11-21T04:55:10;49639.31;;;-136.69;95.41
21879;BME280;27908;42.708;23.278;2023-11-21T04:57:36;49635.38;;;-136.69;94.98
21879;BME280;27908;42.708;23.278;2023-11-21T05:00:02;49641.28;;;-136.69;94.65
21879;BME280;27908;42.708;23.278;2023-11-21T05:02:31;49664.91;;;-136.69;95.41
21879;BME280;27908;42.708;23.278;2023-11-21T05:04:59;49659.00;;;-136.69;94.95
21879;BME280;27908;42.708;23.278;2023-11-21T05:07:25;49649.16;;;-136.69;94.59
21879;BME280;27908;42.708;23.278;2023-11-21T05:09:52;49633.41;;;-136.69;94.79
21879;BME280;27908;42.708;23.278;2023-11-21T05:12:18;49635.38;;;-136.69;94.30
21879;BME280;27908;42.708;23.278;2023-11-21T05:14:43;49645.22;;;-136.69;94.88
21879;BME280;27908;42.708;23.278;2023-11-21T05:17:08;49647.19;;;-136.69;94.10
21879;BME280;27908;42.708;23.278;2023-11-21T05:19:34;49647.19;;;-136.69;95.27
21879;BME280;27908;42.708;23.278;2023-11-21T05:22:00;49639.31;;;-136.69;94.79
21879;BME280;27908;42.708;23.278;2023-11-21T05:24:26;49641.28;;;-136.69;94.30
21879;BME280;27908;42.708;23.278;2023-11-21T05:26:52;49625.53;;;-136.69;94.45
21879;BME280;27908;42.708;23.278;2023-11-21T05:29:18;49617.66;;;-136.69;93.97
21879;BME280;27908;42.708;23.278;2023-11-21T05:31:43;49625.53;;;-136.69;94.12
21879;BME280;27908;42.708;23.278;2023-11-21T05:34:09;49666.88;;;-136.69;93.50
21879;BME280;27908;42.708;23.278;2023-11-21T05:36:34;49664.91;;;-136.69;94.18
21879;BME280;27908;42.708;23.278;2023-11-21T05:38:59;49659.00;;;-136.69;94.11
21879;BME280;27908;42.708;23.278;2023-11-21T05:41:25;49647.19;;;-136.69;93.51
21879;BME280;27908;42.708;23.278;2023-11-21T05:43:51;49651.13;;;-136.69;93.39
21879;BME280;27908;42.708;23.278;2023-11-21T05:46:16;49631.44;;;-136.69;93.32
21879;BME280;27908;42.708;23.278;2023-11-21T05:48:41;49666.88;;;-136.69;93.86
21879;BME280;27908;42.708;23.278;2023-11-21T05:51:07;49649.16;;;-136.69;93.94
21879;BME280;27908;42.708;23.278;2023-11-21T05:53:33;49672.78;;;-136.69;94.14
21879;BME280;27908;42.708;23.278;2023-11-21T05:55:59;49633.41;;;-136.69;93.20
21879;BME280;27908;42.708;23.278;2023-11-21T05:58:25;49664.91;;;-136.69;93.51
21879;BME280;27908;42.708;23.278;2023-11-21T06:00:50;49623.56;;;-136.69;93.10
21879;BME280;27908;42.708;23.278;2023-11-21T06:03:16;49672.78;;;-136.69;92.61
21879;BME280;27908;42.708;23.278;2023-11-21T06:05:42;49629.47;;;-136.69;93.07
21879;BME280;27908;42.708;23.278;2023-11-21T06:08:08;49678.69;;;-136.69;92.83
21879;BME280;27908;42.708;23.278;2023-11-21T06:10:34;49641.28;;;-136.69;92.83
21879;BME280;27908;42.708;23.278;2023-11-21T06:12:59;49668.84;;;-136.69;94.15
21879;BME280;27908;42.708;23.278;2023-11-21T06:15:25;49643.25;;;-136.69;93.59
21879;BME280;27908;42.708;23.278;2023-11-21T06:17:51;49627.50;;;-136.69;94.37
21879;BME280;27908;42.708;23.278;2023-11-21T06:20:19;49651.13;;;-136.69;94.38
21879;BME280;27908;42.708;23.278;2023-11-21T06:22:48;49645.22;;;-136.69;93.95
21879;BME280;27908;42.708;23.278;2023-11-21T06:25:14;49645.22;;;-136.69;94.57
21879;BME280;27908;42.708;23.278;2023-11-21T06:27:43;49649.16;;;-136.69;93.81
21879;BME280;27908;42.708;23.278;2023-11-21T06:30:10;49659.00;;;-136.69;94.23
21879;BME280;27908;42.708;23.278;2023-11-21T06:32:37;49660.97;;;-136.69;93.43
21879;BME280;27908;42.708;23.278;2023-11-21T06:35:04;49647.19;;;-136.69;93.34
21879;BME280;27908;42.708;23.278;2023-11-21T06:37:30;49631.44;;;-136.69;93.61
21879;BME280;27908;42.708;23.278;2023-11-21T06:39:57;49625.53;;;-136.69;92.68
21879;BME280;27908;42.708;23.278;2023-11-21T06:42:26;49659.00;;;-136.69;93.10
21879;BME280;27908;42.708;23.278;2023-11-21T06:44:53;49643.25;;;-136.69;92.59
21879;BME280;27908;42.708;23.278;2023-11-21T06:47:23;49664.91;;;-136.69;91.66
21879;BME280;27908;42.708;23.278;2023-11-21T06:49:52;49664.91;;;-136.69;91.62
21879;BME280;27908;42.708;23.278;2023-11-21T06:52:18;49647.19;;;-136.69;90.86
21879;BME280;27908;42.708;23.278;2023-11-21T06:54:44;49635.38;;;-136.69;90.07
21879;BME280;27908;42.708;23.278;2023-11-21T06:57:11;49694.44;;;-136.69;89.27
21879;BME280;27908;42.708;23.278;2023-11-21T06:59:36;49666.88;;;-136.69;88.83
21879;BME280;27908;42.708;23.278;2023-11-21T07:02:02;49657.03;;;-136.69;89.39
21879;BME280;27908;42.708;23.278;2023-11-21T07:04:28;49660.97;;;-136.69;89.41
21879;BME280;27908;42.708;23.278;2023-11-21T07:06:53;49637.34;;;-136.69;88.98
21879;BME280;27908;42.708;23.278;2023-11-21T07:09:19;49637.34;;;-136.69;88.53
21879;BME280;27908;42.708;23.278;2023-11-21T07:11:48;49664.91;;;-136.69;89.05
21879;BME280;27908;42.708;23.278;2023-11-21T07:14:15;49635.38;;;-136.69;88.72
21879;BME280;27908;42.708;23.278;2023-11-21T07:16:41;49639.31;;;-136.69;89.07
21879;BME280;27908;42.708;23.278;2023-11-21T07:19:07;49718.06;;;-136.69;88.95
21879;BME280;27908;42.708;23.278;2023-11-21T07:21:34;49649.16;;;-136.69;87.34
21879;BME280;27908;42.708;23.278;2023-11-21T07:24:00;49633.41;;;-136.69;86.93
21879;BME280;27908;42.708;23.278;2023-11-21T07:26:29;49668.84;;;-136.69;87.07
21879;BME280;27908;42.708;23.278;2023-11-21T07:28:54;49627.50;;;-136.69;86.20
21879;BME280;27908;42.708;23.278;2023-11-21T07:31:21;49639.31;;;-136.69;85.74
21879;BME280;27908;42.708;23.278;2023-11-21T07:33:47;49682.63;;;-136.69;85.96
21879;BME280;27908;42.708;23.278;2023-11-21T07:36:13;49627.50;;;-136.69;85.01
21879;BME280;27908;42.708;23.278;2023-11-21T07:38:38;49662.94;;;-136.69;84.53
21879;BME280;27908;42.708;23.278;2023-11-21T07:41:04;49639.31;;;-136.69;83.45
21879;BME280;27908;42.708;23.278;2023-11-21T07:43:30;49662.94;;;-136.69;83.18
21879;BME280;27908;42.708;23.278;2023-11-21T07:46:01;49659.00;;;-136.69;83.19
21879;BME280;27908;42.708;23.278;2023-11-21T07:48:28;49651.13;;;-136.69;82.77
21879;BME280;27908;42.708;23.278;2023-11-21T07:50:54;49666.88;;;-136.69;81.94
21879;BME280;27908;42.708;23.278;2023-11-21T07:53:19;49657.03;;;-136.69;80.34
21879;BME280;27908;42.708;23.278;2023-11-21T07:55:44;49684.59;;;-136.69;80.70
21879;BME280;27908;42.708;23.278;2023-11-21T07:58:12;49659.00;;;-136.69;79.59
21879;BME280;27908;42.708;23.278;2023-11-21T08:00:38;49660.97;;;-136.69;78.92
21879;BME280;27908;42.708;23.278;2023-11-21T08:03:04;49653.09;;;-136.69;78.72
21879;BME280;27908;42.708;23.278;2023-11-21T08:05:31;49672.78;;;-136.69;78.56
21879;BME280;27908;42.708;23.278;2023-11-21T08:07:57;49692.47;;;-136.69;78.05
21879;BME280;27908;42.708;23.278;2023-11-21T08:10:22;49676.72;;;-136.69;77.26
21879;BME280;27908;42.708;23.278;2023-11-21T08:12:48;49660.97;;;-136.69;76.31
21879;BME280;27908;42.708;23.278;2023-11-21T08:15:14;49682.63;;;-136.69;75.67
21879;BME280;27908;42.708;23.278;2023-11-21T08:17:39;49700.34;;;-136.69;75.39
21879;BME280;27908;42.708;23.278;2023-11-21T08:20:06;49680.66;;;-136.69;75.00
21879;BME280;27908;42.708;23.278;2023-11-21T08:22:34;49698.38;;;-136.69;72.91
21879;BME280;27908;42.708;23.278;2023-11-21T08:24:59;49694.44;;;-136.69;73.34
21879;BME280;27908;42.708;23.278;2023-11-21T08:27:25;49672.78;;;-136.69;72.86
21879;BME280;27908;42.708;23.278;2023-11-21T08:29:50;49666.88;;;-136.69;72.65
21879;BME280;27908;42.708;23.278;2023-11-21T08:32:18;49690.50;;;-136.69;72.33
21879;BME280;27908;42.708;23.278;2023-11-21T08:34:43;49666.88;;;-136.69;70.85
21879;BME280;27908;42.708;23.278;2023-11-21T08:37:10;49680.66;;;-136.69;69.79
21879;BME280;27908;42.708;23.278;2023-11-21T08:39:36;49714.13;;;-136.69;68.42
21879;BME280;27908;42.708;23.278;2023-11-21T08:42:03;49692.47;;;-136.69;67.92
21879;BME280;27908;42.708;23.278;2023-11-21T08:44:28;49725.94;;;-136.69;66.43
21879;BME280;27908;42.708;23.278;2023-11-21T08:46:55;49692.47;;;-136.69;66.00
21879;BME280;27908;42.708;23.278;2023-11-21T08:49:21;49684.59;;;-136.69;66.08
21879;BME280;27908;42.708;23.278;2023-11-21T08:51:46;49688.53;;;-136.69;65.56
21879;BME280;27908;42.708;23.278;2023-11-21T08:54:12;49696.41;;;-136.69;65.99
21879;BME280;27908;42.708;23.278;2023-11-21T08:56:37;49714.13;;;-136.69;65.74
21879;BME280;27908;42.708;23.278;2023-11-21T08:59:03;49653.09;;;-136.69;65.13
21879;BME280;27908;42.708;23.278;2023-11-21T09:01:29;49704.28;;;-136.69;65.67
21879;BME280;27908;42.708;23.278;2023-11-21T09:03:57;49702.31;;;-136.69;64.74
21879;BME280;27908;42.708;23.278;2023-11-21T09:06:23;49700.34;;;-136.69;63.08
21879;BME280;27908;42.708;23.278;2023-11-21T09:08:48;49716.09;;;-136.69;63.22
21879;BME280;27908;42.708;23.278;2023-11-21T09:11:14;49723.97;;;-136.69;61.82
21879;BME280;27908;42.708;23.278;2023-11-21T09:13:39;49696.41;;;-136.69;61.52
21879;BME280;27908;42.708;23.278;2023-11-21T09:16:05;49741.69;;;-136.69;61.39
21879;BME280;27908;42.708;23.278;2023-11-21T09:18:31;49723.97;;;-136.69;61.63
21879;BME280;27908;42.708;23.278;2023-11-21T09:20:56;49714.13;;;-136.69;61.25
21879;BME280;27908;42.708;23.278;2023-11-21T09:23:22;49710.19;;;-136.69;61.15
21879;BME280;27908;42.708;23.278;2023-11-21T09:25:47;49714.13;;;-136.69;61.62
21879;BME280;27908;42.708;23.278;2023-11-21T09:28:15;49700.34;;;-136.69;59.92
21879;BME280;27908;42.708;23.278;2023-11-21T09:30:42;49708.22;;;-136.69;59.95
21879;BME280;27908;42.708;23.278;2023-11-21T09:33:09;49714.13;;;-136.69;58.75
21879;BME280;27908;42.708;23.278;2023-11-21T09:35:37;49694.44;;;-136.69;59.02
21879;BME280;27908;42.708;23.278;2023-11-21T09:38:03;49753.50;;;-136.69;58.39
21879;BME280;27908;42.708;23.278;2023-11-21T09:40:35;49696.41;;;-136.69;60.17
21879;BME280;27908;42.708;23.278;2023-11-21T09:43:08;49690.50;;;-136.69;59.43
21879;BME280;27908;42.708;23.278;2023-11-21T09:45:45;49733.81;;;-136.69;58.30
21879;BME280;27908;42.708;23.278;2023-11-21T09:48:11;49727.91;;;-136.69;58.02
21879;BME280;27908;42.708;23.278;2023-11-21T09:50:37;49710.19;;;-136.69;58.02
21879;BME280;27908;42.708;23.278;2023-11-21T09:53:20;49718.06;;;-136.69;56.91
21879;BME280;27908;42.708;23.278;2023-11-21T09:55:53;49747.59;;;-136.69;56.79
21879;BME280;27908;42.708;23.278;2023-11-21T09:58:19;49741.69;;;-136.69;55.68
21879;BME280;27908;42.708;23.278;2023-11-21T10:00:46;49747.59;;;-136.69;55.13
21879;BME280;27908;42.708;23.278;2023-11-21T10:03:13;49777.13;;;-136.69;54.48
21879;BME280;27908;42.708;23.278;2023-11-21T10:05:40;49753.50;;;-136.69;54.56
21879;BME280;27908;42.708;23.278;2023-11-21T10:08:10;49777.13;;;-136.69;52.96
21879;BME280;27908;42.708;23.278;2023-11-21T10:10:37;49765.31;;;-136.69;52.09
21879;BME280;27908;42.708;23.278;2023-11-21T10:13:05;49747.59;;;-136.69;52.00
21879;BME280;27908;42.708;23.278;2023-11-21T10:15:33;49743.66;;;-136.69;52.36
21879;BME280;27908;42.708;23.278;2023-11-21T10:18:03;49786.97;;;-136.69;51.48
21879;BME280;27908;42.708;23.278;2023-11-21T10:20:30;49802.72;;;-136.69;51.04
21879;BME280;27908;42.708;23.278;2023-11-21T10:22:56;49763.34;;;-136.69;51.33
21879;BME280;27908;42.708;23.278;2023-11-21T10:25:22;49783.03;;;-136.69;50.73
21879;BME280;27908;42.708;23.278;2023-11-21T10:27:48;49785.00;;;-136.69;50.50
21879;BME280;27908;42.708;23.278;2023-11-21T10:30:17;49798.78;;;-136.69;51.04
21879;BME280;27908;42.708;23.278;2023-11-21T10:32:43;49773.19;;;-136.69;50.86
21879;BME280;27908;42.708;23.278;2023-11-21T10:35:09;49749.56;;;-136.69;51.81
21879;BME280;27908;42.708;23.278;2023-11-21T10:37:39;49751.53;;;-136.69;51.94
21879;BME280;27908;42.708;23.278;2023-11-21T10:40:09;49755.47;;;-136.69;51.62
21879;BME280;27908;42.708;23.278;2023-11-21T10:42:40;49773.19;;;-136.69;51.52
21879;BME280;27908;42.708;23.278;2023-11-21T10:45:10;49771.22;;;-136.69;51.48
21879;BME280;27908;42.708;23.278;2023-11-21T10:47:43;49775.16;;;-136.69;51.89
21879;BME280;27908;42.708;23.278;2023-11-21T10:50:09;49773.19;;;-136.69;51.02
21879;BME280;27908;42.708;23.278;2023-11-21T10:52:40;49769.25;;;-136.69;51.47
21879;BME280;27908;42.708;23.278;2023-11-21T10:55:20;49785.00;;;-136.69;51.32
21879;BME280;27908;42.708;23.278;2023-11-21T10:57:49;49796.81;;;-136.69;51.67
21879;BME280;27908;42.708;23.278;2023-11-21T11:00:17;49765.31;;;-136.69;50.80
21879;BME280;27908;42.708;23.278;2023-11-21T11:02:48;49783.03;;;-136.69;51.20
21879;BME280;27908;42.708;23.278;2023-11-21T11:05:16;49755.47;;;-136.69;51.13
21879;BME280;27908;42.708;23.278;2023-11-21T11:07:44;49781.06;;;-136.69;50.34
21879;BME280;27908;42.708;23.278;2023-11-21T11:10:13;49763.34;;;-136.69;50.50
21879;BME280;27908;42.708;23.278;2023-11-21T11:12:40;49792.88;;;-136.69;50.82
21879;BME280;27908;42.708;23.278;2023-11-21T11:15:07;49779.09;;;-136.69;49.93
21879;BME280;27908;42.708;23.278;2023-11-21T11:17:37;49767.28;;;-136.69;49.87
21879;BME280;27908;42.708;23.278;2023-11-21T11:20:08;49773.19;;;-136.69;50.19
21879;BME280;27908;42.708;23.278;2023-11-21T11:28:21;49785.00;;;-136.69;49.81
21879;BME280;27908;42.708;23.278;2023-11-21T11:30:57;49771.22;;;-136.69;49.88
21879;BME280;27908;42.708;23.278;2023-11-21T11:38:33;49785.00;;;-136.69;50.34
21879;BME280;27908;42.708;23.278;2023-11-21T11:41:02;49792.88;;;-136.69;50.03
21879;BME280;27908;42.708;23.278;2023-11-21T11:43:29;49729.88;;;-136.69;50.01
21879;BME280;27908;42.708;23.278;2023-11-21T11:45:58;49743.66;;;-136.69;50.82
21879;BME280;27908;42.708;23.278;2023-11-21T11:48:25;49725.94;;;-136.69;51.38
21879;BME280;27908;42.708;23.278;2023-11-21T11:51:11;49747.59;;;-136.69;51.70
21879;BME280;27908;42.708;23.278;2023-11-21T11:53:41;49733.81;;;-136.69;52.13
21879;BME280;27908;42.708;23.278;2023-11-21T11:58:48;49733.81;;;-136.69;53.31
21879;BME280;27908;42.708;23.278;2023-11-21T12:01:17;49739.72;;;-136.69;54.51
21879;BME280;27908;42.708;23.278;2023-11-21T12:03:44;49747.59;;;-136.69;56.69
21879;BME280;27908;42.708;23.278;2023-11-21T12:06:09;49747.59;;;-136.69;56.07
21879;BME280;27908;42.708;23.278;2023-11-21T12:08:37;49735.78;;;-136.69;57.01
21879;BME280;27908;42.708;23.278;2023-11-21T12:11:04;49747.59;;;-136.69;58.97
21879;BME280;27908;42.708;23.278;2023-11-21T12:13:30;49720.03;;;-136.69;61.81
21879;BME280;27908;42.708;23.278;2023-11-21T12:15:55;49714.13;;;-136.69;62.67
21879;BME280;27908;42.708;23.278;2023-11-21T12:18:21;49729.88;;;-136.69;63.44
21879;BME280;27908;42.708;23.278;2023-11-21T12:20:46;49710.19;;;-136.69;64.00
21879;BME280;27908;42.708;23.278;2023-11-21T12:23:14;49725.94;;;-136.69;64.82
21879;BME280;27908;42.708;23.278;2023-11-21T12:25:41;49725.94;;;-136.69;66.59
21879;BME280;27908;42.708;23.278;2023-11-21T12:28:07;49712.16;;;-136.69;68.56
21879;BME280;27908;42.708;23.278;2023-11-21T12:30:36;49747.59;;;-136.69;69.72
21879;BME280;27908;42.708;23.278;2023-11-21T12:33:03;49706.25;;;-136.69;69.76
21879;BME280;27908;42.708;23.278;2023-11-21T12:35:31;49718.06;;;-136.69;71.84
21879;BME280;27908;42.708;23.278;2023-11-21T12:37:59;49725.94;;;-136.69;71.78
21879;BME280;27908;42.708;23.278;2023-11-21T12:40:25;49722.00;;;-136.69;71.52